sensor_id;sensor_type;location;lat;lon;timestamp;temperature;humidity
15328;DHT22;7764;51.430;6.840;2023-04-15T00:00:35;9.80;99.90
15328;DHT22;7764;51.430;6.840;2023-04-15T00:03:02;9.90;99.90
15328;DHT22;7764;51.430;6.840;2023-04-15T00:05:31;9.80;99.90
15328;DHT22;7764;51.430;6.840;2023-04-15T00:07:59;9.90;99.90
15328;DHT22;7764;51.430;6.840;2023-04-15T00:10:26;9.90;99.90
15328;DHT22;7764;51.430;6.840;2023-04-15T00:12:53;9.80;99.90
15328;DHT22;7764;51.430;6.840;2023-04-15T00:15:20;9.80;99.90
15328;DHT22;7764;51.430;6.840;2023-04-15T00:17:49;9.80;99.90
15328;DHT22;7764;51.430;6.840;2023-04-15T00:20:16;9.80;99.90
15328;DHT22;7764;51.430;6.840;2023-04-15T00:22:44;9.80;99.90
15328;DHT22;7764;51.430;6.840;2023-04-15T00:25:11;9.80;99.90
15328;DHT22;7764;51.430;6.840;2023-04-15T00:27:39;9.70;99.90
15328;DHT22;7764;51.430;6.840;2023-04-15T00:30:07;9.70;99.90
15328;DHT22;7764;51.430;6.840;2023-04-15T00:32:34;9.70;99.90
15328;DHT22;7764;51.430;6.840;2023-04-15T00:35:01;9.60;99.90
15328;DHT22;7764;51.430;6.840;2023-04-15T00:37:28;9.60;99.90
15328;DHT22;7764;51.430;6.840;2023-04-15T00:39:56;9.60;99.90
15328;DHT22;7764;51.430;6.840;2023-04-15T00:42:24;9.60;99.90
15328;DHT22;7764;51.430;6.840;2023-04-15T00:44:51;9.60;99.90
15328;DHT22;7764;51.430;6.840;2023-04-15T00:47:19;9.60;99.90
15328;DHT22;7764;51.430;6.840;2023-04-15T00:49:47;9.50;99.90
15328;DHT22;7764;51.430;6.840;2023-04-15T00:52:14;9.60;99.90
15328;DHT22;7764;51.430;6.840;2023-04-15T00:54:40;9.50;99.90
15328;DHT22;7764;51.430;6.840;2023-04-15T00:57:09;9.50;99.90
15328;DHT22;7764;51.430;6.840;2023-04-15T00:59:36;9.50;99.90
15328;DHT22;7764;51.430;6.840;2023-04-15T01:02:02;9.50;99.90
15328;DHT22;7764;51.430;6.840;2023-04-15T01:04:29;9.40;99.90
15328;DHT22;7764;51.430;6.840;2023-04-15T01:06:57;9.30;99.90
15328;DHT22;7764;51.430;6.840;2023-04-15T01:09:23;9.30;99.90
15328;DHT22;7764;51.430;6.840;2023-04-15T01:11:50;9.20;99.90
15328;DHT22;7764;51.430;6.840;2023-04-15T01:14:20;9.30;99.90
15328;DHT22;7764;51.430;6.840;2023-04-15T01:16:47;9.20;99.90
15328;DHT22;7764;51.430;6.840;2023-04-15T01:19:15;9.30;99.90
15328;DHT22;7764;51.430;6.840;2023-04-15T01:21:43;9.30;99.90
15328;DHT22;7764;51.430;6.840;2023-04-15T01:24:10;9.20;99.90
15328;DHT22;7764;51.430;6.840;2023-04-15T01:26:40;9.20;99.90
15328;DHT22;7764;51.430;6.840;2023-04-15T01:29:07;9.20;99.90
15328;DHT22;7764;51.430;6.840;2023-04-15T01:31:34;9.10;99.90
15328;DHT22;7764;51.430;6.840;2023-04-15T01:34:02;9.10;99.90
15328;DHT22;7764;51.430;6.840;2023-04-15T01:36:29;9.10;99.90
15328;DHT22;7764;51.430;6.840;2023-04-15T01:38:56;9.00;99.90
15328;DHT22;7764;51.430;6.840;2023-04-15T01:41:24;9.00;99.90
15328;DHT22;7764;51.430;6.840;2023-04-15T01:43:54;9.00;99.90
15328;DHT22;7764;51.430;6.840;2023-04-15T01:46:21;8.90;99.90
15328;DHT22;7764;51.430;6.840;2023-04-15T01:48:48;8.80;99.90
15328;DHT22;7764;51.430;6.840;2023-04-15T01:51:15;8.70;99.90
15328;DHT22;7764;51.430;6.840;2023-04-15T01:53:42;8.70;99.90
15328;DHT22;7764;51.430;6.840;2023-04-15T01:56:09;8.70;99.90
15328;DHT22;7764;51.430;6.840;2023-04-15T01:58:36;8.60;99.90
15328;DHT22;7764;51.430;6.840;2023-04-15T02:01:06;8.60;99.90
15328;DHT22;7764;51.430;6.840;2023-04-15T02:03:34;8.60;99.90
15328;DHT22;7764;51.430;6.840;2023-04-15T02:06:01;8.50;99.90
15328;DHT22;7764;51.430;6.840;2023-04-15T02:08:29;8.50;99.90
15328;DHT22;7764;51.430;6.840;2023-04-15T02:10:55;8.50;99.90
15328;DHT22;7764;51.430;6.840;2023-04-15T02:13:22;8.60;99.90
15328;DHT22;7764;51.430;6.840;2023-04-15T02:15:49;8.60;99.90
15328;DHT22;7764;51.430;6.840;2023-04-15T02:18:18;8.60;99.90
15328;DHT22;7764;51.430;6.840;2023-04-15T02:20:45;8.60;99.90
15328;DHT22;7764;51.430;6.840;2023-04-15T02:23:12;8.60;99.90
15328;DHT22;7764;51.430;6.840;2023-04-15T02:25:40;8.60;99.90
15328;DHT22;7764;51.430;6.840;2023-04-15T02:28:06;8.60;99.90
15328;DHT22;7764;51.430;6.840;2023-04-15T02:30:33;8.50;99.90
15328;DHT22;7764;51.430;6.840;2023-04-15T02:33:00;8.60;99.90
15328;DHT22;7764;51.430;6.840;2023-04-15T02:35:29;8.60;99.90
15328;DHT22;7764;51.430;6.840;2023-04-15T02:37:56;8.60;99.90
15328;DHT22;7764;51.430;6.840;2023-04-15T02:40:22;8.60;99.90
15328;DHT22;7764;51.430;6.840;2023-04-15T02:42:49;8.60;99.90
15328;DHT22;7764;51.430;6.840;2023-04-15T02:45:16;8.60;99.90
15328;DHT22;7764;51.430;6.840;2023-04-15T02:47:45;8.60;99.90
15328;DHT22;7764;51.430;6.840;2023-04-15T02:50:12;8.50;99.90
15328;DHT22;7764;51.430;6.840;2023-04-15T02:52:42;8.50;99.90
15328;DHT22;7764;51.430;6.840;2023-04-15T02:55:09;8.40;99.90
15328;DHT22;7764;51.430;6.840;2023-04-15T02:57:36;8.40;99.90
15328;DHT22;7764;51.430;6.840;2023-04-15T03:00:04;8.40;99.90
15328;DHT22;7764;51.430;6.840;2023-04-15T03:02:34;8.40;99.90
15328;DHT22;7764;51.430;6.840;2023-04-15T03:05:01;8.40;99.90
15328;DHT22;7764;51.430;6.840;2023-04-15T03:07:28;8.40;99.90
15328;DHT22;7764;51.430;6.840;2023-04-15T03:09:56;8.40;99.90
15328;DHT22;7764;51.430;6.840;2023-04-15T03:12:23;8.40;99.90
15328;DHT22;7764;51.430;6.840;2023-04-15T03:14:50;8.40;99.90
15328;DHT22;7764;51.430;6.840;2023-04-15T03:17:17;8.40;99.90
15328;DHT22;7764;51.430;6.840;2023-04-15T03:19:44;8.40;99.90
15328;DHT22;7764;51.430;6.840;2023-04-15T03:22:11;8.40;99.90
15328;DHT22;7764;51.430;6.840;2023-04-15T03:24:37;8.40;99.90
15328;DHT22;7764;51.430;6.840;2023-04-15T03:27:06;8.40;99.90
15328;DHT22;7764;51.430;6.840;2023-04-15T03:29:33;8.40;99.90
15328;DHT22;7764;51.430;6.840;2023-04-15T03:32:00;8.40;99.90
15328;DHT22;7764;51.430;6.840;2023-04-15T03:34:27;8.40;99.90
15328;DHT22;7764;51.430;6.840;2023-04-15T03:36:54;8.40;99.90
15328;DHT22;7764;51.430;6.840;2023-04-15T03:39:21;8.40;99.90
15328;DHT22;7764;51.430;6.840;2023-04-15T03:41:48;8.40;99.90
15328;DHT22;7764;51.430;6.840;2023-04-15T03:44:16;8.30;99.90
15328;DHT22;7764;51.430;6.840;2023-04-15T03:46:43;8.30;99.90
15328;DHT22;7764;51.430;6.840;2023-04-15T03:49:10;8.30;99.90
15328;DHT22;7764;51.430;6.840;2023-04-15T03:51:37;8.20;99.90
15328;DHT22;7764;51.430;6.840;2023-04-15T03:54:04;8.20;99.90
15328;DHT22;7764;51.430;6.840;2023-04-15T03:56:31;8.20;99.90
15328;DHT22;7764;51.430;6.840;2023-04-15T03:58:57;8.10;99.90
15328;DHT22;7764;51.430;6.840;2023-04-15T04:01:26;8.10;99.90
15328;DHT22;7764;51.430;6.840;2023-04-15T04:03:53;8.10;99.90
15328;DHT22;7764;51.430;6.840;2023-04-15T04:06:20;8.10;99.90
15328;DHT22;7764;51.430;6.840;2023-04-15T04:08:46;8.10;99.90
15328;DHT22;7764;51.430;6.840;2023-04-15T04:11:13;8.00;99.90
15328;DHT22;7764;51.430;6.840;2023-04-15T04:13:40;8.10;99.90
15328;DHT22;7764;51.430;6.840;2023-04-15T04:16:07;8.00;99.90
15328;DHT22;7764;51.430;6.840;2023-04-15T04:18:35;8.00;99.90
15328;DHT22;7764;51.430;6.840;2023-04-15T04:21:02;8.00;99.90
15328;DHT22;7764;51.430;6.840;2023-04-15T04:23:29;8.00;99.90
15328;DHT22;7764;51.430;6.840;2023-04-15T04:25:56;8.00;99.90
15328;DHT22;7764;51.430;6.840;2023-04-15T04:28:23;7.90;99.90
15328;DHT22;7764;51.430;6.840;2023-04-15T04:30:50;7.90;99.90
15328;DHT22;7764;51.430;6.840;2023-04-15T04:33:17;7.90;99.90
15328;DHT22;7764;51.430;6.840;2023-04-15T04:35:45;7.90;99.90
15328;DHT22;7764;51.430;6.840;2023-04-15T04:38:12;7.90;99.90
15328;DHT22;7764;51.430;6.840;2023-04-15T04:40:38;7.90;99.90
15328;DHT22;7764;51.430;6.840;2023-04-15T04:43:05;7.80;99.90
15328;DHT22;7764;51.430;6.840;2023-04-15T04:45:32;7.80;99.90
15328;DHT22;7764;51.430;6.840;2023-04-15T04:47:59;7.80;99.90
15328;DHT22;7764;51.430;6.840;2023-04-15T04:50:26;7.80;99.90
15328;DHT22;7764;51.430;6.840;2023-04-15T04:52:54;7.80;99.90
15328;DHT22;7764;51.430;6.840;2023-04-15T04:55:21;7.80;99.90
15328;DHT22;7764;51.430;6.840;2023-04-15T04:57:48;7.80;99.90
15328;DHT22;7764;51.430;6.840;2023-04-15T05:00:15;7.80;99.90
15328;DHT22;7764;51.430;6.840;2023-04-15T05:02:42;7.80;99.90
15328;DHT22;7764;51.430;6.840;2023-04-15T05:05:09;7.80;99.90
15328;DHT22;7764;51.430;6.840;2023-04-15T05:07:37;7.80;99.90
15328;DHT22;7764;51.430;6.840;2023-04-15T05:10:08;7.80;99.90
15328;DHT22;7764;51.430;6.840;2023-04-15T05:12:35;7.80;99.90
15328;DHT22;7764;51.430;6.840;2023-04-15T05:17:30;7.90;99.90
15328;DHT22;7764;51.430;6.840;2023-04-15T05:19:59;7.90;99.90
15328;DHT22;7764;51.430;6.840;2023-04-15T05:22:26;8.00;99.90
15328;DHT22;7764;51.430;6.840;2023-04-15T05:24:53;8.00;99.90
15328;DHT22;7764;51.430;6.840;2023-04-15T05:27:21;8.00;99.90
15328;DHT22;7764;51.430;6.840;2023-04-15T05:29:49;8.00;99.90
15328;DHT22;7764;51.430;6.840;2023-04-15T05:32:16;8.00;99.90
15328;DHT22;7764;51.430;6.840;2023-04-15T05:34:42;8.00;99.90
15328;DHT22;7764;51.430;6.840;2023-04-15T05:37:09;8.00;99.90
15328;DHT22;7764;51.430;6.840;2023-04-15T05:39:36;8.10;99.90
15328;DHT22;7764;51.430;6.840;2023-04-15T05:42:03;8.20;99.90
15328;DHT22;7764;51.430;6.840;2023-04-15T05:44:32;8.40;99.90
15328;DHT22;7764;51.430;6.840;2023-04-15T05:46:58;8.60;99.90
15328;DHT22;7764;51.430;6.840;2023-04-15T05:49:25;8.90;99.90
15328;DHT22;7764;51.430;6.840;2023-04-15T05:51:53;9.20;99.90
15328;DHT22;7764;51.430;6.840;2023-04-15T05:54:20;9.60;99.90
15328;DHT22;7764;51.430;6.840;2023-04-15T05:56:47;9.80;99.90
15328;DHT22;7764;51.430;6.840;2023-04-15T05:59:14;10.10;99.90
15328;DHT22;7764;51.430;6.840;2023-04-15T06:01:42;10.50;99.90
15328;DHT22;7764;51.430;6.840;2023-04-15T06:04:09;10.70;99.90
15328;DHT22;7764;51.430;6.840;2023-04-15T06:06:37;11.20;99.90
15328;DHT22;7764;51.430;6.840;2023-04-15T06:09:03;11.10;99.90
15328;DHT22;7764;51.430;6.840;2023-04-15T06:11:30;11.20;99.90
15328;DHT22;7764;51.430;6.840;2023-04-15T06:13:57;11.30;99.90
15328;DHT22;7764;51.430;6.840;2023-04-15T06:16:24;11.40;99.90
15328;DHT22;7764;51.430;6.840;2023-04-15T06:18:53;11.40;99.90
15328;DHT22;7764;51.430;6.840;2023-04-15T06:21:20;11.40;99.90
15328;DHT22;7764;51.430;6.840;2023-04-15T06:23:46;11.20;99.90
15328;DHT22;7764;51.430;6.840;2023-04-15T06:26:13;11.30;99.90
15328;DHT22;7764;51.430;6.840;2023-04-15T06:28:40;11.30;99.90
15328;DHT22;7764;51.430;6.840;2023-04-15T06:31:07;11.50;99.90
15328;DHT22;7764;51.430;6.840;2023-04-15T06:33:34;11.40;99.90
15328;DHT22;7764;51.430;6.840;2023-04-15T06:36:02;11.70;99.90
15328;DHT22;7764;51.430;6.840;2023-04-15T06:38:29;11.80;99.90
15328;DHT22;7764;51.430;6.840;2023-04-15T06:40:56;11.80;99.90
15328;DHT22;7764;51.430;6.840;2023-04-15T06:43:22;11.80;99.90
15328;DHT22;7764;51.430;6.840;2023-04-15T06:45:50;12.20;99.90
15328;DHT22;7764;51.430;6.840;2023-04-15T06:48:17;12.30;99.90
15328;DHT22;7764;51.430;6.840;2023-04-15T06:50:44;12.30;99.90
15328;DHT22;7764;51.430;6.840;2023-04-15T06:53:12;12.20;99.90
15328;DHT22;7764;51.430;6.840;2023-04-15T06:55:39;12.00;99.90
15328;DHT22;7764;51.430;6.840;2023-04-15T06:58:06;12.10;99.90
15328;DHT22;7764;51.430;6.840;2023-04-15T07:00:33;12.40;99.90
15328;DHT22;7764;51.430;6.840;2023-04-15T07:03:00;12.70;99.90
15328;DHT22;7764;51.430;6.840;2023-04-15T07:05:28;12.90;99.90
15328;DHT22;7764;51.430;6.840;2023-04-15T07:07:55;12.90;99.90
15328;DHT22;7764;51.430;6.840;2023-04-15T07:10:23;12.90;99.90
15328;DHT22;7764;51.430;6.840;2023-04-15T07:12:50;12.70;99.90
15328;DHT22;7764;51.430;6.840;2023-04-15T07:15:17;12.40;99.90
15328;DHT22;7764;51.430;6.840;2023-04-15T07:17:44;12.70;99.90
15328;DHT22;7764;51.430;6.840;2023-04-15T07:20:11;12.80;99.90
15328;DHT22;7764;51.430;6.840;2023-04-15T07:22:39;12.90;99.90
15328;DHT22;7764;51.430;6.840;2023-04-15T07:25:07;13.00;99.90
15328;DHT22;7764;51.430;6.840;2023-04-15T07:27:35;12.80;99.90
15328;DHT22;7764;51.430;6.840;2023-04-15T07:30:02;12.80;99.90
15328;DHT22;7764;51.430;6.840;2023-04-15T07:32:29;12.80;99.90
15328;DHT22;7764;51.430;6.840;2023-04-15T07:34:56;12.90;99.90
15328;DHT22;7764;51.430;6.840;2023-04-15T07:37:23;12.90;99.90
15328;DHT22;7764;51.430;6.840;2023-04-15T07:39:50;12.80;99.90
15328;DHT22;7764;51.430;6.840;2023-04-15T07:42:17;12.90;99.90
15328;DHT22;7764;51.430;6.840;2023-04-15T07:44:45;12.70;99.90
15328;DHT22;7764;51.430;6.840;2023-04-15T07:47:12;12.30;99.90
15328;DHT22;7764;51.430;6.840;2023-04-15T07:49:40;12.20;99.90
15328;DHT22;7764;51.430;6.840;2023-04-15T07:52:07;12.10;99.90
15328;DHT22;7764;51.430;6.840;2023-04-15T07:54:34;12.20;99.90
15328;DHT22;7764;51.430;6.840;2023-04-15T07:57:01;12.40;99.90
15328;DHT22;7764;51.430;6.840;2023-04-15T07:59:28;12.50;99.90
15328;DHT22;7764;51.430;6.840;2023-04-15T08:01:59;12.60;99.90
15328;DHT22;7764;51.430;6.840;2023-04-15T08:04:26;12.50;99.90
15328;DHT22;7764;51.430;6.840;2023-04-15T08:06:53;12.30;99.90
15328;DHT22;7764;51.430;6.840;2023-04-15T08:09:19;12.20;99.90
15328;DHT22;7764;51.430;6.840;2023-04-15T08:11:48;12.20;99.90
15328;DHT22;7764;51.430;6.840;2023-04-15T08:14:15;12.30;99.90
15328;DHT22;7764;51.430;6.840;2023-04-15T08:16:42;12.50;99.90
15328;DHT22;7764;51.430;6.840;2023-04-15T08:19:10;12.60;99.90
15328;DHT22;7764;51.430;6.840;2023-04-15T08:21:37;12.80;99.90
15328;DHT22;7764;51.430;6.840;2023-04-15T08:24:05;13.00;99.90
15328;DHT22;7764;51.430;6.840;2023-04-15T08:26:32;12.80;99.90
15328;DHT22;7764;51.430;6.840;2023-04-15T08:28:59;12.70;99.90
15328;DHT22;7764;51.430;6.840;2023-04-15T08:31:26;12.70;99.90
15328;DHT22;7764;51.430;6.840;2023-04-15T08:33:55;12.80;99.90
15328;DHT22;7764;51.430;6.840;2023-04-15T08:36:24;12.80;99.90
15328;DHT22;7764;51.430;6.840;2023-04-15T08:38:51;12.70;99.90
15328;DHT22;7764;51.430;6.840;2023-04-15T08:41:21;12.80;99.90
15328;DHT22;7764;51.430;6.840;2023-04-15T08:43:52;12.60;99.90
15328;DHT22;7764;51.430;6.840;2023-04-15T08:46:20;12.50;99.90
15328;DHT22;7764;51.430;6.840;2023-04-15T08:48:48;12.40;99.90
15328;DHT22;7764;51.430;6.840;2023-04-15T08:51:15;12.40;99.90
15328;DHT22;7764;51.430;6.840;2023-04-15T08:53:44;12.30;99.90
15328;DHT22;7764;51.430;6.840;2023-04-15T08:56:13;12.30;99.90
15328;DHT22;7764;51.430;6.840;2023-04-15T08:58:42;12.50;99.90
15328;DHT22;7764;51.430;6.840;2023-04-15T09:01:11;12.70;99.90
15328;DHT22;7764;51.430;6.840;2023-04-15T09:03:38;12.70;99.90
15328;DHT22;7764;51.430;6.840;2023-04-15T09:06:05;12.70;99.90
15328;DHT22;7764;51.430;6.840;2023-04-15T09:08:32;12.80;99.90
15328;DHT22;7764;51.430;6.840;2023-04-15T09:11:02;12.80;99.90
15328;DHT22;7764;51.430;6.840;2023-04-15T09:13:29;12.70;99.90
15328;DHT22;7764;51.430;6.840;2023-04-15T09:15:56;12.50;99.90
15328;DHT22;7764;51.430;6.840;2023-04-15T09:18:27;12.40;99.90
15328;DHT22;7764;51.430;6.840;2023-04-15T09:20:55;12.50;99.90
15328;DHT22;7764;51.430;6.840;2023-04-15T09:23:22;12.70;99.90
15328;DHT22;7764;51.430;6.840;2023-04-15T09:25:49;12.90;99.90
15328;DHT22;7764;51.430;6.840;2023-04-15T09:28:24;12.90;99.90
15328;DHT22;7764;51.430;6.840;2023-04-15T09:30:54;13.00;99.90
15328;DHT22;7764;51.430;6.840;2023-04-15T09:33:22;13.00;99.90
15328;DHT22;7764;51.430;6.840;2023-04-15T09:35:56;12.90;99.90
15328;DHT22;7764;51.430;6.840;2023-04-15T09:38:24;13.00;99.90
15328;DHT22;7764;51.430;6.840;2023-04-15T09:40:51;13.10;99.90
15328;DHT22;7764;51.430;6.840;2023-04-15T09:43:17;13.10;99.90
15328;DHT22;7764;51.430;6.840;2023-04-15T09:45:48;12.90;99.90
15328;DHT22;7764;51.430;6.840;2023-04-15T09:48:18;12.80;99.90
15328;DHT22;7764;51.430;6.840;2023-04-15T09:50:46;12.80;99.90
15328;DHT22;7764;51.430;6.840;2023-04-15T09:53:18;12.80;99.90
15328;DHT22;7764;51.430;6.840;2023-04-15T09:55:48;12.80;99.90
15328;DHT22;7764;51.430;6.840;2023-04-15T09:58:19;12.90;99.90
15328;DHT22;7764;51.430;6.840;2023-04-15T10:00:48;13.10;99.90
15328;DHT22;7764;51.430;6.840;2023-04-15T10:03:18;13.00;99.90
15328;DHT22;7764;51.430;6.840;2023-04-15T10:05:47;13.00;99.90
15328;DHT22;7764;51.430;6.840;2023-04-15T10:08:16;13.20;99.90
15328;DHT22;7764;51.430;6.840;2023-04-15T10:10:44;13.20;99.90
15328;DHT22;7764;51.430;6.840;2023-04-15T10:13:13;13.10;99.90
15328;DHT22;7764;51.430;6.840;2023-04-15T10:15:43;13.30;99.90
15328;DHT22;7764;51.430;6.840;2023-04-15T10:18:15;13.20;99.90
15328;DHT22;7764;51.430;6.840;2023-04-15T10:20:43;13.20;99.90
15328;DHT22;7764;51.430;6.840;2023-04-15T10:23:11;12.80;99.90
15328;DHT22;7764;51.430;6.840;2023-04-15T10:25:38;13.00;99.90
15328;DHT22;7764;51.430;6.840;2023-04-15T10:28:06;12.90;99.90
15328;DHT22;7764;51.430;6.840;2023-04-15T10:30:34;12.80;99.90
15328;DHT22;7764;51.430;6.840;2023-04-15T10:33:02;12.90;99.90
15328;DHT22;7764;51.430;6.840;2023-04-15T10:35:31;12.90;99.90
15328;DHT22;7764;51.430;6.840;2023-04-15T10:37:59;12.90;99.90
15328;DHT22;7764;51.430;6.840;2023-04-15T10:40:28;12.80;99.90
15328;DHT22;7764;51.430;6.840;2023-04-15T10:42:56;12.70;99.90
15328;DHT22;7764;51.430;6.840;2023-04-15T10:45:25;12.70;99.90
15328;DHT22;7764;51.430;6.840;2023-04-15T10:47:54;12.80;99.90
15328;DHT22;7764;51.430;6.840;2023-04-15T10:50:21;12.70;99.90
15328;DHT22;7764;51.430;6.840;2023-04-15T10:52:52;12.50;99.90
15328;DHT22;7764;51.430;6.840;2023-04-15T10:55:21;12.60;99.90
15328;DHT22;7764;51.430;6.840;2023-04-15T10:57:51;12.60;99.90
15328;DHT22;7764;51.430;6.840;2023-04-15T11:00:20;12.60;99.90
15328;DHT22;7764;51.430;6.840;2023-04-15T11:02:51;12.40;99.90
15328;DHT22;7764;51.430;6.840;2023-04-15T11:05:19;12.50;99.90
15328;DHT22;7764;51.430;6.840;2023-04-15T11:07:49;12.70;99.90
15328;DHT22;7764;51.430;6.840;2023-04-15T11:10:52;12.70;99.90
15328;DHT22;7764;51.430;6.840;2023-04-15T11:13:28;12.50;99.90
15328;DHT22;7764;51.430;6.840;2023-04-15T11:16:00;12.40;99.90
15328;DHT22;7764;51.430;6.840;2023-04-15T11:18:31;12.30;99.90
15328;DHT22;7764;51.430;6.840;2023-04-15T11:21:00;12.40;99.90
15328;DHT22;7764;51.430;6.840;2023-04-15T11:23:30;12.50;99.90
15328;DHT22;7764;51.430;6.840;2023-04-15T11:26:00;12.70;99.90
15328;DHT22;7764;51.430;6.840;2023-04-15T11:28:28;12.80;99.90
15328;DHT22;7764;51.430;6.840;2023-04-15T11:30:55;13.00;99.90
15328;DHT22;7764;51.430;6.840;2023-04-15T11:33:24;12.90;99.90
15328;DHT22;7764;51.430;6.840;2023-04-15T11:35:52;12.80;99.90
15328;DHT22;7764;51.430;6.840;2023-04-15T11:38:20;12.70;99.90
15328;DHT22;7764;51.430;6.840;2023-04-15T11:40:47;12.90;99.90
15328;DHT22;7764;51.430;6.840;2023-04-15T11:43:18;13.00;99.90
15328;DHT22;7764;51.430;6.840;2023-04-15T11:45:53;12.90;99.90
15328;DHT22;7764;51.430;6.840;2023-04-15T11:48:21;12.80;99.90
15328;DHT22;7764;51.430;6.840;2023-04-15T11:50:53;12.80;99.90
15328;DHT22;7764;51.430;6.840;2023-04-15T11:53:21;12.60;99.90
15328;DHT22;7764;51.430;6.840;2023-04-15T11:55:50;12.80;99.90
15328;DHT22;7764;51.430;6.840;2023-04-15T11:58:20;12.80;99.90
15328;DHT22;7764;51.430;6.840;2023-04-15T12:00:49;12.80;99.90
15328;DHT22;7764;51.430;6.840;2023-04-15T12:03:22;13.00;99.90
15328;DHT22;7764;51.430;6.840;2023-04-15T12:06:07;13.00;99.90
15328;DHT22;7764;51.430;6.840;2023-04-15T12:08:49;12.70;99.90
15328;DHT22;7764;51.430;6.840;2023-04-15T12:11:16;12.50;99.90
15328;DHT22;7764;51.430;6.840;2023-04-15T12:13:45;12.50;99.90
15328;DHT22;7764;51.430;6.840;2023-04-15T12:16:15;12.40;99.90
15328;DHT22;7764;51.430;6.840;2023-04-15T12:18:44;12.30;99.90
15328;DHT22;7764;51.430;6.840;2023-04-15T12:21:12;12.50;99.90
15328;DHT22;7764;51.430;6.840;2023-04-15T12:23:39;12.40;99.90
15328;DHT22;7764;51.430;6.840;2023-04-15T12:26:13;12.60;99.90
15328;DHT22;7764;51.430;6.840;2023-04-15T12:28:40;12.50;99.90
15328;DHT22;7764;51.430;6.840;2023-04-15T12:31:08;12.40;99.90
15328;DHT22;7764;51.430;6.840;2023-04-15T12:33:36;12.20;99.90
15328;DHT22;7764;51.430;6.840;2023-04-15T12:36:04;12.20;99.90
15328;DHT22;7764;51.430;6.840;2023-04-15T12:38:30;12.30;99.90
15328;DHT22;7764;51.430;6.840;2023-04-15T12:40:57;12.40;99.90
15328;DHT22;7764;51.430;6.840;2023-04-15T12:43:24;12.50;99.90
15328;DHT22;7764;51.430;6.840;2023-04-15T12:45:51;12.60;99.90
15328;DHT22;7764;51.430;6.840;2023-04-15T12:48:20;12.50;99.90
15328;DHT22;7764;51.430;6.840;2023-04-15T12:50:47;12.50;99.90
15328;DHT22;7764;51.430;6.840;2023-04-15T12:53:14;12.40;99.90
15328;DHT22;7764;51.430;6.840;2023-04-15T12:55:41;12.50;99.90
15328;DHT22;7764;51.430;6.840;2023-04-15T12:58:08;12.60;99.90
15328;DHT22;7764;51.430;6.840;2023-04-15T13:00:36;12.60;99.90
15328;DHT22;7764;51.430;6.840;2023-04-15T13:03:03;12.50;99.90
15328;DHT22;7764;51.430;6.840;2023-04-15T13:05:31;12.60;99.90
15328;DHT22;7764;51.430;6.840;2023-04-15T13:07:58;12.70;99.90
15328;DHT22;7764;51.430;6.840;2023-04-15T13:10:25;12.70;99.90
15328;DHT22;7764;51.430;6.840;2023-04-15T13:12:52;12.80;99.90
15328;DHT22;7764;51.430;6.840;2023-04-15T13:15:21;12.60;99.90
15328;DHT22;7764;51.430;6.840;2023-04-15T13:17:48;12.30;99.90
15328;DHT22;7764;51.430;6.840;2023-04-15T13:20:15;12.30;99.90
15328;DHT22;7764;51.430;6.840;2023-04-15T13:22:43;12.20;99.90
15328;DHT22;7764;51.430;6.840;2023-04-15T13:25:10;12.40;99.90
15328;DHT22;7764;51.430;6.840;2023-04-15T13:27:37;12.40;99.90
15328;DHT22;7764;51.430;6.840;2023-04-15T13:30:05;12.20;99.90
15328;DHT22;7764;51.430;6.840;2023-04-15T13:32:32;12.30;99.90
15328;DHT22;7764;51.430;6.840;2023-04-15T13:34:58;12.40;99.90
15328;DHT22;7764;51.430;6.840;2023-04-15T13:37:26;12.40;99.90
15328;DHT22;7764;51.430;6.840;2023-04-15T13:39:55;12.40;99.90
15328;DHT22;7764;51.430;6.840;2023-04-15T13:42:22;12.30;99.90
15328;DHT22;7764;51.430;6.840;2023-04-15T13:44:49;12.30;99.90
15328;DHT22;7764;51.430;6.840;2023-04-15T13:47:16;12.30;99.90
15328;DHT22;7764;51.430;6.840;2023-04-15T13:49:44;12.30;99.90
15328;DHT22;7764;51.430;6.840;2023-04-15T13:52:12;12.20;99.90
15328;DHT22;7764;51.430;6.840;2023-04-15T13:54:39;12.10;99.90
15328;DHT22;7764;51.430;6.840;2023-04-15T13:57:07;12.10;99.90
15328;DHT22;7764;51.430;6.840;2023-04-15T13:59:34;12.10;99.90
15328;DHT22;7764;51.430;6.840;2023-04-15T14:02:01;12.10;99.90
15328;DHT22;7764;51.430;6.840;2023-04-15T14:04:27;12.10;99.90
15328;DHT22;7764;51.430;6.840;2023-04-15T14:06:55;12.20;99.90
15328;DHT22;7764;51.430;6.840;2023-04-15T14:09:22;12.20;99.90
15328;DHT22;7764;51.430;6.840;2023-04-15T14:11:49;12.10;99.90
15328;DHT22;7764;51.430;6.840;2023-04-15T14:14:17;12.00;99.90
15328;DHT22;7764;51.430;6.840;2023-04-15T14:16:44;11.90;99.90
15328;DHT22;7764;51.430;6.840;2023-04-15T14:19:12;12.00;99.90
15328;DHT22;7764;51.430;6.840;2023-04-15T14:21:39;12.00;99.90
15328;DHT22;7764;51.430;6.840;2023-04-15T14:24:06;11.90;99.90
15328;DHT22;7764;51.430;6.840;2023-04-15T14:26:32;11.90;99.90
15328;DHT22;7764;51.430;6.840;2023-04-15T14:28:59;11.90;99.90
15328;DHT22;7764;51.430;6.840;2023-04-15T14:31:27;12.00;99.90
15328;DHT22;7764;51.430;6.840;2023-04-15T14:33:54;12.00;99.90
15328;DHT22;7764;51.430;6.840;2023-04-15T14:36:21;12.00;99.90
15328;DHT22;7764;51.430;6.840;2023-04-15T14:38:48;12.00;99.90
15328;DHT22;7764;51.430;6.840;2023-04-15T14:41:15;12.00;99.90
15328;DHT22;7764;51.430;6.840;2023-04-15T14:43:42;12.10;99.90
15328;DHT22;7764;51.430;6.840;2023-04-15T14:46:09;12.20;99.90
15328;DHT22;7764;51.430;6.840;2023-04-15T14:48:38;12.20;99.90
15328;DHT22;7764;51.430;6.840;2023-04-15T14:51:05;12.00;99.90
15328;DHT22;7764;51.430;6.840;2023-04-15T14:53:32;11.90;99.90
15328;DHT22;7764;51.430;6.840;2023-04-15T14:55:59;11.80;99.90
15328;DHT22;7764;51.430;6.840;2023-04-15T14:58:25;11.80;99.90
15328;DHT22;7764;51.430;6.840;2023-04-15T15:00:52;11.70;99.90
15328;DHT22;7764;51.430;6.840;2023-04-15T15:03:19;11.70;99.90
15328;DHT22;7764;51.430;6.840;2023-04-15T15:05:47;11.70;99.90
15328;DHT22;7764;51.430;6.840;2023-04-15T15:08:14;11.70;99.90
15328;DHT22;7764;51.430;6.840;2023-04-15T15:10:41;11.80;99.90
15328;DHT22;7764;51.430;6.840;2023-04-15T15:13:09;11.70;99.90
15328;DHT22;7764;51.430;6.840;2023-04-15T15:15:36;11.60;99.90
15328;DHT22;7764;51.430;6.840;2023-04-15T15:18:03;11.60;99.90
15328;DHT22;7764;51.430;6.840;2023-04-15T15:20:30;11.60;99.90
15328;DHT22;7764;51.430;6.840;2023-04-15T15:23:00;11.50;99.90
15328;DHT22;7764;51.430;6.840;2023-04-15T15:25:27;11.50;99.90
15328;DHT22;7764;51.430;6.840;2023-04-15T15:27:54;11.60;99.90
15328;DHT22;7764;51.430;6.840;2023-04-15T15:30:21;11.50;99.90
15328;DHT22;7764;51.430;6.840;2023-04-15T15:32:48;11.40;99.90
15328;DHT22;7764;51.430;6.840;2023-04-15T15:35:15;11.40;99.90
15328;DHT22;7764;51.430;6.840;2023-04-15T15:37:42;11.20;99.90
15328;DHT22;7764;51.430;6.840;2023-04-15T15:40:11;11.40;99.90
15328;DHT22;7764;51.430;6.840;2023-04-15T15:42:38;11.30;99.90
15328;DHT22;7764;51.430;6.840;2023-04-15T15:45:05;11.20;99.90
15328;DHT22;7764;51.430;6.840;2023-04-15T15:47:32;11.30;99.90
15328;DHT22;7764;51.430;6.840;2023-04-15T15:50:00;11.30;99.90
15328;DHT22;7764;51.430;6.840;2023-04-15T15:52:27;11.30;99.90
15328;DHT22;7764;51.430;6.840;2023-04-15T15:54:54;11.30;99.90
15328;DHT22;7764;51.430;6.840;2023-04-15T15:57:22;11.30;99.90